Tropical Cyclones
[Index]
Main Index Home Page Stock Weather Photos Extreme Storms Discussion Storm News and Storm Chasing Reports Tropical Cyclones / Hurricanes / Typhoons Weather Data and Links Wild Fires / Bushfires Weather Observation Techniques Weather Picture Catalogue Tornado Pictures and Reports Stock Video Footage and DVDs for sale
Season 2003-2004 Tropical Cyclone ABAIMBA Track Map
Season 2003-2004 Summaries: [BoM-AU] [JTWC-AU] [JTWC-SIO] [JTWC-SPAC] [JTWC-SH]
<<- Previous TC | JTWC 2003-2004 Season | Next TC ->>

click for intensity scale information  Lat/long Grid: Show Hide

 Date Labels: Show Hide

Joint Typhoon Warning Centre Cyclone Data

Name: ABAIMBA

29 Sep 2003 06:00 UTC to 05 Oct 2003 06:00 UTC

    date/time    lat    long     hPa   cat  kts
2003-09-29 06    4.4    63.4    1000         30          
2003-09-29 12    4.4    63.8    1000         30          
2003-09-29 18    4.4    64.2    1000         30          
2003-09-30 00    4.4    64.6    1000         30          
2003-09-30 06    4.5    65.0     997         35          
2003-09-30 12    4.5    65.4     997         35          
2003-09-30 18    4.4    65.7     997         35          
2003-10-01 00    4.2    65.9     994    1    40          
2003-10-01 06    4.4    66.1     991    1    45          
2003-10-01 12    4.7    66.2     991    1    45          
2003-10-01 18    5.0    66.4     991    1    45          
2003-10-02 00    5.2    66.7     994    1    40          
2003-10-02 06    5.4    67.0    1000         30          
2003-10-02 12    5.5    67.4    1000         30          
2003-10-02 18    5.8    67.5    1000         30          
2003-10-03 00    6.1    67.3    1000         30          
2003-10-03 06    6.2    67.0     997         35          
2003-10-03 12    6.5    66.9     997         35          
2003-10-03 18    6.8    66.6     997         35          
2003-10-04 00    7.0    66.2    1000         30          
2003-10-04 06    7.1    65.6    1002         25          
2003-10-04 12    6.8    65.2    1002         25          
2003-10-04 18    6.4    65.0    1002         25          
2003-10-05 00    6.1    65.1    1002         25          
2003-10-05 06    5.8    65.1    1002         25          
Winds are 1-min average.

Tropical cyclone tracks developed by Michael Bath using data from the Joint Typhoon Warning Centre Best Tracks and Google Maps.


[Australian Severe Weather index] [Copyright Notice] [Email Contacts] [Search This Site] [Privacy Policy]
Document: tropical_cyclone_abaimba.htm Updated: 28 June 2017